sensor_id;sensor_type;location;lat;lon;timestamp;temperature;humidity
52211;DHT22;38179;52.756;6.906;2024-01-11T00:00:09;-4.90;99.90
52211;DHT22;38179;52.756;6.906;2024-01-11T00:02:34;-4.90;99.90
52211;DHT22;38179;52.756;6.906;2024-01-11T00:05:00;-4.90;99.90
52211;DHT22;38179;52.756;6.906;2024-01-11T00:07:26;-4.90;99.90
52211;DHT22;38179;52.756;6.906;2024-01-11T00:09:51;-4.90;99.90
52211;DHT22;38179;52.756;6.906;2024-01-11T00:12:17;-4.90;99.90
52211;DHT22;38179;52.756;6.906;2024-01-11T00:14:43;-4.70;99.90
52211;DHT22;38179;52.756;6.906;2024-01-11T00:17:08;-5.00;99.90
52211;DHT22;38179;52.756;6.906;2024-01-11T00:19:34;-4.90;99.90
52211;DHT22;38179;52.756;6.906;2024-01-11T00:22:00;-4.90;99.90
52211;DHT22;38179;52.756;6.906;2024-01-11T00:24:25;-5.00;99.90
52211;DHT22;38179;52.756;6.906;2024-01-11T00:26:52;-4.90;99.90
52211;DHT22;38179;52.756;6.906;2024-01-11T00:29:17;-4.90;99.90
52211;DHT22;38179;52.756;6.906;2024-01-11T00:31:43;-5.00;99.90
52211;DHT22;38179;52.756;6.906;2024-01-11T00:34:09;-4.90;99.90
52211;DHT22;38179;52.756;6.906;2024-01-11T00:36:34;-5.00;99.90
52211;DHT22;38179;52.756;6.906;2024-01-11T00:39:02;-3.70;99.90
52211;DHT22;38179;52.756;6.906;2024-01-11T00:41:27;-5.00;99.90
52211;DHT22;38179;52.756;6.906;2024-01-11T00:43:53;-4.90;99.90
52211;DHT22;38179;52.756;6.906;2024-01-11T00:46:19;-5.00;99.90
52211;DHT22;38179;52.756;6.906;2024-01-11T00:48:45;-5.00;99.90
52211;DHT22;38179;52.756;6.906;2024-01-11T00:51:10;-5.00;99.90
52211;DHT22;38179;52.756;6.906;2024-01-11T00:53:36;-3.70;99.90
52211;DHT22;38179;52.756;6.906;2024-01-11T00:56:02;-5.00;99.90
52211;DHT22;38179;52.756;6.906;2024-01-11T00:58:27;-5.00;99.90
52211;DHT22;38179;52.756;6.906;2024-01-11T01:00:54;-5.00;99.90
52211;DHT22;38179;52.756;6.906;2024-01-11T01:03:20;-5.00;99.90
52211;DHT22;38179;52.756;6.906;2024-01-11T01:05:46;-3.20;99.90
52211;DHT22;38179;52.756;6.906;2024-01-11T01:08:12;-5.00;99.90
52211;DHT22;38179;52.756;6.906;2024-01-11T01:10:38;-5.00;99.90
52211;DHT22;38179;52.756;6.906;2024-01-11T01:13:04;-3.10;99.90
52211;DHT22;38179;52.756;6.906;2024-01-11T01:15:30;-5.00;99.90
52211;DHT22;38179;52.756;6.906;2024-01-11T01:17:55;-5.00;99.90
52211;DHT22;38179;52.756;6.906;2024-01-11T01:20:22;-5.00;99.90
52211;DHT22;38179;52.756;6.906;2024-01-11T01:22:48;-5.10;99.90
52211;DHT22;38179;52.756;6.906;2024-01-11T01:25:14;-5.10;99.90
52211;DHT22;38179;52.756;6.906;2024-01-11T01:27:40;-5.10;99.90
52211;DHT22;38179;52.756;6.906;2024-01-11T01:30:06;-5.10;99.90
52211;DHT22;38179;52.756;6.906;2024-01-11T01:32:32;-5.10;99.90
52211;DHT22;38179;52.756;6.906;2024-01-11T01:34:58;-5.10;99.90
52211;DHT22;38179;52.756;6.906;2024-01-11T01:37:26;-5.10;99.90
52211;DHT22;38179;52.756;6.906;2024-01-11T01:39:51;-5.20;99.90
52211;DHT22;38179;52.756;6.906;2024-01-11T01:42:17;-5.10;99.90
52211;DHT22;38179;52.756;6.906;2024-01-11T01:44:43;-5.20;99.90
52211;DHT22;38179;52.756;6.906;2024-01-11T01:47:09;-5.20;99.90
52211;DHT22;38179;52.756;6.906;2024-01-11T01:49:36;-5.20;99.90
52211;DHT22;38179;52.756;6.906;2024-01-11T01:52:03;-5.30;99.90
52211;DHT22;38179;52.756;6.906;2024-01-11T01:54:31;-5.20;99.90
52211;DHT22;38179;52.756;6.906;2024-01-11T01:56:57;-5.30;99.90
52211;DHT22;38179;52.756;6.906;2024-01-11T01:59:25;-5.30;99.90
52211;DHT22;38179;52.756;6.906;2024-01-11T02:01:52;-5.30;99.90
52211;DHT22;38179;52.756;6.906;2024-01-11T02:04:18;-5.30;99.90
52211;DHT22;38179;52.756;6.906;2024-01-11T02:06:46;-5.30;99.90
52211;DHT22;38179;52.756;6.906;2024-01-11T02:09:13;-5.40;99.90
52211;DHT22;38179;52.756;6.906;2024-01-11T02:11:40;-5.40;99.90
52211;DHT22;38179;52.756;6.906;2024-01-11T02:14:07;-5.40;99.90
52211;DHT22;38179;52.756;6.906;2024-01-11T02:16:33;-5.40;99.90
52211;DHT22;38179;52.756;6.906;2024-01-11T02:18:58;-5.40;99.90
52211;DHT22;38179;52.756;6.906;2024-01-11T02:21:26;-5.50;99.90
52211;DHT22;38179;52.756;6.906;2024-01-11T02:24:06;-5.40;99.90
52211;DHT22;38179;52.756;6.906;2024-01-11T02:26:33;-5.50;99.90
52211;DHT22;38179;52.756;6.906;2024-01-11T02:28:59;-3.70;99.90
52211;DHT22;38179;52.756;6.906;2024-01-11T02:31:25;-5.60;99.90
52211;DHT22;38179;52.756;6.906;2024-01-11T02:33:52;-5.60;99.90
52211;DHT22;38179;52.756;6.906;2024-01-11T02:36:20;-5.60;99.90
52211;DHT22;38179;52.756;6.906;2024-01-11T02:38:46;-5.60;99.90
52211;DHT22;38179;52.756;6.906;2024-01-11T02:41:12;-5.60;99.90
52211;DHT22;38179;52.756;6.906;2024-01-11T02:43:39;-5.60;99.90
52211;DHT22;38179;52.756;6.906;2024-01-11T02:46:04;-5.60;99.90
52211;DHT22;38179;52.756;6.906;2024-01-11T02:48:30;-5.60;99.90
52211;DHT22;38179;52.756;6.906;2024-01-11T02:50:57;-5.60;99.90
52211;DHT22;38179;52.756;6.906;2024-01-11T02:53:23;-5.60;99.90
52211;DHT22;38179;52.756;6.906;2024-01-11T02:55:53;-5.60;99.90
52211;DHT22;38179;52.756;6.906;2024-01-11T02:58:18;-5.60;99.90
52211;DHT22;38179;52.756;6.906;2024-01-11T03:00:44;-5.60;99.90
52211;DHT22;38179;52.756;6.906;2024-01-11T03:03:10;-5.20;99.90
52211;DHT22;38179;52.756;6.906;2024-01-11T03:05:35;-5.60;99.90
52211;DHT22;38179;52.756;6.906;2024-01-11T03:08:01;-5.60;99.90
52211;DHT22;38179;52.756;6.906;2024-01-11T03:10:27;-5.60;99.90
52211;DHT22;38179;52.756;6.906;2024-01-11T03:12:52;-5.60;99.90
52211;DHT22;38179;52.756;6.906;2024-01-11T03:15:18;-5.60;99.90
52211;DHT22;38179;52.756;6.906;2024-01-11T03:17:44;-5.60;99.90
52211;DHT22;38179;52.756;6.906;2024-01-11T03:20:10;-5.60;99.90
52211;DHT22;38179;52.756;6.906;2024-01-11T03:22:35;-5.70;99.90
52211;DHT22;38179;52.756;6.906;2024-01-11T03:25:01;-5.70;99.90
52211;DHT22;38179;52.756;6.906;2024-01-11T03:27:27;-5.70;99.90
52211;DHT22;38179;52.756;6.906;2024-01-11T03:29:53;-5.70;99.90
52211;DHT22;38179;52.756;6.906;2024-01-11T03:32:19;-5.70;99.90
52211;DHT22;38179;52.756;6.906;2024-01-11T03:34:44;-5.60;99.90
52211;DHT22;38179;52.756;6.906;2024-01-11T03:37:10;-5.70;99.90
52211;DHT22;38179;52.756;6.906;2024-01-11T03:39:36;-5.70;99.90
52211;DHT22;38179;52.756;6.906;2024-01-11T03:42:01;-5.70;99.90
52211;DHT22;38179;52.756;6.906;2024-01-11T03:44:30;-5.70;99.90
52211;DHT22;38179;52.756;6.906;2024-01-11T03:46:56;-5.70;99.90
52211;DHT22;38179;52.756;6.906;2024-01-11T03:49:22;-5.70;99.90
52211;DHT22;38179;52.756;6.906;2024-01-11T03:51:47;-5.70;99.90
52211;DHT22;38179;52.756;6.906;2024-01-11T03:54:13;-4.00;99.90
52211;DHT22;38179;52.756;6.906;2024-01-11T03:56:39;-5.50;99.90
52211;DHT22;38179;52.756;6.906;2024-01-11T03:59:05;-5.80;99.90
52211;DHT22;38179;52.756;6.906;2024-01-11T04:01:38;-5.80;99.90
52211;DHT22;38179;52.756;6.906;2024-01-11T04:04:03;-5.90;99.90
52211;DHT22;38179;52.756;6.906;2024-01-11T04:06:29;-7.30;99.90
52211;DHT22;38179;52.756;6.906;2024-01-11T04:08:55;-5.90;99.90
52211;DHT22;38179;52.756;6.906;2024-01-11T04:11:20;-5.80;99.90
52211;DHT22;38179;52.756;6.906;2024-01-11T04:13:46;-5.90;99.90
52211;DHT22;38179;52.756;6.906;2024-01-11T04:16:12;-5.90;99.90
52211;DHT22;38179;52.756;6.906;2024-01-11T04:18:37;-5.90;99.90
52211;DHT22;38179;52.756;6.906;2024-01-11T04:21:03;-5.80;99.90
52211;DHT22;38179;52.756;6.906;2024-01-11T04:23:29;-5.30;99.90
52211;DHT22;38179;52.756;6.906;2024-01-11T04:25:55;-5.80;99.90
52211;DHT22;38179;52.756;6.906;2024-01-11T04:28:21;-5.80;99.90
52211;DHT22;38179;52.756;6.906;2024-01-11T04:30:50;-5.80;99.90
52211;DHT22;38179;52.756;6.906;2024-01-11T04:33:15;-5.90;99.90
52211;DHT22;38179;52.756;6.906;2024-01-11T04:35:41;-5.90;99.90
52211;DHT22;38179;52.756;6.906;2024-01-11T04:38:07;-4.70;99.90
52211;DHT22;38179;52.756;6.906;2024-01-11T04:40:32;-6.00;99.90
52211;DHT22;38179;52.756;6.906;2024-01-11T04:42:58;-6.00;99.90
52211;DHT22;38179;52.756;6.906;2024-01-11T04:45:24;-6.00;99.90
52211;DHT22;38179;52.756;6.906;2024-01-11T04:47:52;-5.90;99.90
52211;DHT22;38179;52.756;6.906;2024-01-11T04:50:18;-5.90;99.90
52211;DHT22;38179;52.756;6.906;2024-01-11T04:52:43;-5.90;99.90
52211;DHT22;38179;52.756;6.906;2024-01-11T04:55:09;-5.90;99.90
52211;DHT22;38179;52.756;6.906;2024-01-11T04:57:35;-5.90;99.90
52211;DHT22;38179;52.756;6.906;2024-01-11T05:00:01;-5.90;99.90
52211;DHT22;38179;52.756;6.906;2024-01-11T05:02:26;-6.00;99.90
52211;DHT22;38179;52.756;6.906;2024-01-11T05:04:52;-4.30;99.90
52211;DHT22;38179;52.756;6.906;2024-01-11T05:07:17;-5.30;99.90
52211;DHT22;38179;52.756;6.906;2024-01-11T05:09:43;-5.50;99.90
52211;DHT22;38179;52.756;6.906;2024-01-11T05:12:09;-5.90;99.90
52211;DHT22;38179;52.756;6.906;2024-01-11T05:14:34;-5.90;99.90
52211;DHT22;38179;52.756;6.906;2024-01-11T05:17:00;-5.90;99.90
52211;DHT22;38179;52.756;6.906;2024-01-11T05:19:26;-5.90;99.90
52211;DHT22;38179;52.756;6.906;2024-01-11T05:21:51;-6.00;99.90
52211;DHT22;38179;52.756;6.906;2024-01-11T05:24:17;-4.80;99.90
52211;DHT22;38179;52.756;6.906;2024-01-11T05:26:43;-5.90;99.90
52211;DHT22;38179;52.756;6.906;2024-01-11T05:29:08;-6.00;99.90
52211;DHT22;38179;52.756;6.906;2024-01-11T05:31:34;-5.90;99.90
52211;DHT22;38179;52.756;6.906;2024-01-11T05:34:00;-5.90;99.90
52211;DHT22;38179;52.756;6.906;2024-01-11T05:36:26;-5.90;99.90
52211;DHT22;38179;52.756;6.906;2024-01-11T05:38:51;-5.80;99.90
52211;DHT22;38179;52.756;6.906;2024-01-11T05:41:17;-4.10;99.90
52211;DHT22;38179;52.756;6.906;2024-01-11T05:43:43;-5.80;99.90
52211;DHT22;38179;52.756;6.906;2024-01-11T05:46:09;-5.80;99.90
52211;DHT22;38179;52.756;6.906;2024-01-11T05:48:35;-5.70;99.90
52211;DHT22;38179;52.756;6.906;2024-01-11T05:51:01;-5.70;99.90
52211;DHT22;38179;52.756;6.906;2024-01-11T05:53:26;-5.70;99.90
52211;DHT22;38179;52.756;6.906;2024-01-11T05:55:53;-5.60;99.90
52211;DHT22;38179;52.756;6.906;2024-01-11T05:58:19;-5.60;99.90
52211;DHT22;38179;52.756;6.906;2024-01-11T06:00:45;-5.60;99.90
52211;DHT22;38179;52.756;6.906;2024-01-11T06:03:14;-5.30;99.90
52211;DHT22;38179;52.756;6.906;2024-01-11T06:05:40;-5.50;99.90
52211;DHT22;38179;52.756;6.906;2024-01-11T06:08:06;-5.40;99.90
52211;DHT22;38179;52.756;6.906;2024-01-11T06:10:33;-5.40;99.90
52211;DHT22;38179;52.756;6.906;2024-01-11T06:12:59;-5.30;99.90
52211;DHT22;38179;52.756;6.906;2024-01-11T06:15:25;-5.30;99.90
52211;DHT22;38179;52.756;6.906;2024-01-11T06:17:50;-3.30;99.90
52211;DHT22;38179;52.756;6.906;2024-01-11T06:20:16;-5.10;99.90
52211;DHT22;38179;52.756;6.906;2024-01-11T06:22:42;-5.00;99.90
52211;DHT22;38179;52.756;6.906;2024-01-11T06:25:08;-5.00;99.90
52211;DHT22;38179;52.756;6.906;2024-01-11T06:27:34;-4.90;99.90
52211;DHT22;38179;52.756;6.906;2024-01-11T06:29:59;-4.90;99.90
52211;DHT22;38179;52.756;6.906;2024-01-11T06:32:25;-4.80;99.90
52211;DHT22;38179;52.756;6.906;2024-01-11T06:34:51;-4.80;99.90
52211;DHT22;38179;52.756;6.906;2024-01-11T06:37:17;-3.70;99.90
52211;DHT22;38179;52.756;6.906;2024-01-11T06:39:43;-4.50;99.90
52211;DHT22;38179;52.756;6.906;2024-01-11T06:42:09;-2.70;99.90
52211;DHT22;38179;52.756;6.906;2024-01-11T06:44:34;-3.80;99.90
52211;DHT22;38179;52.756;6.906;2024-01-11T06:47:00;-4.60;99.90
52211;DHT22;38179;52.756;6.906;2024-01-11T06:49:27;-4.60;99.90
52211;DHT22;38179;52.756;6.906;2024-01-11T06:51:52;-4.50;99.90
52211;DHT22;38179;52.756;6.906;2024-01-11T06:54:18;-2.40;99.90
52211;DHT22;38179;52.756;6.906;2024-01-11T06:56:44;-4.50;99.90
52211;DHT22;38179;52.756;6.906;2024-01-11T06:59:10;-4.50;99.90
52211;DHT22;38179;52.756;6.906;2024-01-11T07:01:35;-4.50;99.90
52211;DHT22;38179;52.756;6.906;2024-01-11T07:04:01;-4.40;99.90
52211;DHT22;38179;52.756;6.906;2024-01-11T07:06:27;-4.40;99.90
52211;DHT22;38179;52.756;6.906;2024-01-11T07:08:53;-4.30;99.90
52211;DHT22;38179;52.756;6.906;2024-01-11T07:11:19;-4.40;99.90
52211;DHT22;38179;52.756;6.906;2024-01-11T07:13:44;-4.40;99.90
52211;DHT22;38179;52.756;6.906;2024-01-11T07:16:10;-4.30;99.90
52211;DHT22;38179;52.756;6.906;2024-01-11T07:18:36;-4.30;99.90
52211;DHT22;38179;52.756;6.906;2024-01-11T07:21:01;-3.00;99.90
52211;DHT22;38179;52.756;6.906;2024-01-11T07:23:27;-4.30;99.90
52211;DHT22;38179;52.756;6.906;2024-01-11T07:25:53;-4.30;99.90
52211;DHT22;38179;52.756;6.906;2024-01-11T07:28:19;-2.20;99.90
52211;DHT22;38179;52.756;6.906;2024-01-11T07:30:50;-4.20;99.90
52211;DHT22;38179;52.756;6.906;2024-01-11T07:33:16;-4.20;99.90
52211;DHT22;38179;52.756;6.906;2024-01-11T07:35:42;-4.20;99.90
52211;DHT22;38179;52.756;6.906;2024-01-11T07:38:08;-4.10;99.90
52211;DHT22;38179;52.756;6.906;2024-01-11T07:40:33;-4.10;99.90
52211;DHT22;38179;52.756;6.906;2024-01-11T07:42:59;-4.10;99.90
52211;DHT22;38179;52.756;6.906;2024-01-11T07:45:25;-4.10;99.90
52211;DHT22;38179;52.756;6.906;2024-01-11T07:47:51;-4.10;99.90
52211;DHT22;38179;52.756;6.906;2024-01-11T07:50:16;-4.10;99.90
52211;DHT22;38179;52.756;6.906;2024-01-11T07:52:42;-4.00;99.90
52211;DHT22;38179;52.756;6.906;2024-01-11T07:55:09;-4.00;99.90
52211;DHT22;38179;52.756;6.906;2024-01-11T07:57:40;-4.00;99.90
52211;DHT22;38179;52.756;6.906;2024-01-11T08:00:06;-4.00;99.90
52211;DHT22;38179;52.756;6.906;2024-01-11T08:02:35;-4.10;99.90
52211;DHT22;38179;52.756;6.906;2024-01-11T08:05:01;-4.00;99.90
52211;DHT22;38179;52.756;6.906;2024-01-11T08:07:27;-3.50;99.90
52211;DHT22;38179;52.756;6.906;2024-01-11T08:09:53;-4.00;99.90
52211;DHT22;38179;52.756;6.906;2024-01-11T08:12:19;-3.90;99.90
52211;DHT22;38179;52.756;6.906;2024-01-11T08:14:45;-2.60;99.90
52211;DHT22;38179;52.756;6.906;2024-01-11T08:17:13;-2.60;99.90
52211;DHT22;38179;52.756;6.906;2024-01-11T08:19:42;-3.90;99.90
52211;DHT22;38179;52.756;6.906;2024-01-11T08:22:08;-3.80;99.90
52211;DHT22;38179;52.756;6.906;2024-01-11T08:24:35;-3.80;99.90
52211;DHT22;38179;52.756;6.906;2024-01-11T08:27:01;-3.80;99.90
52211;DHT22;38179;52.756;6.906;2024-01-11T08:29:26;-3.70;99.90
52211;DHT22;38179;52.756;6.906;2024-01-11T08:31:53;-3.80;99.90
52211;DHT22;38179;52.756;6.906;2024-01-11T08:34:22;-3.30;99.90
52211;DHT22;38179;52.756;6.906;2024-01-11T08:36:48;-3.70;99.90
52211;DHT22;38179;52.756;6.906;2024-01-11T08:39:14;-2.40;99.90
52211;DHT22;38179;52.756;6.906;2024-01-11T08:41:40;-3.60;99.90
52211;DHT22;38179;52.756;6.906;2024-01-11T08:44:06;-3.60;99.90
52211;DHT22;38179;52.756;6.906;2024-01-11T08:46:32;-3.60;99.90
52211;DHT22;38179;52.756;6.906;2024-01-11T08:49:01;-3.50;99.90
52211;DHT22;38179;52.756;6.906;2024-01-11T08:51:29;-2.10;99.90
52211;DHT22;38179;52.756;6.906;2024-01-11T08:53:55;-3.50;99.90
52211;DHT22;38179;52.756;6.906;2024-01-11T08:56:21;-3.50;99.90
52211;DHT22;38179;52.756;6.906;2024-01-11T08:58:47;-3.50;99.90
52211;DHT22;38179;52.756;6.906;2024-01-11T09:01:14;-3.40;99.90
52211;DHT22;38179;52.756;6.906;2024-01-11T09:03:40;-3.40;99.90
52211;DHT22;38179;52.756;6.906;2024-01-11T09:06:05;-3.40;99.90
52211;DHT22;38179;52.756;6.906;2024-01-11T09:08:31;-3.40;99.90
52211;DHT22;38179;52.756;6.906;2024-01-11T09:10:57;-3.30;99.90
52211;DHT22;38179;52.756;6.906;2024-01-11T09:13:27;-1.90;99.90
52211;DHT22;38179;52.756;6.906;2024-01-11T09:15:53;-2.50;99.90
52211;DHT22;38179;52.756;6.906;2024-01-11T09:18:20;-3.20;99.90
52211;DHT22;38179;52.756;6.906;2024-01-11T09:20:45;-3.20;99.90
52211;DHT22;38179;52.756;6.906;2024-01-11T09:23:11;-3.10;99.90
52211;DHT22;38179;52.756;6.906;2024-01-11T09:25:37;-1.50;99.90
52211;DHT22;38179;52.756;6.906;2024-01-11T09:28:03;-1.30;99.90
52211;DHT22;38179;52.756;6.906;2024-01-11T09:30:29;-3.10;99.90
52211;DHT22;38179;52.756;6.906;2024-01-11T09:32:55;-2.40;99.90
52211;DHT22;38179;52.756;6.906;2024-01-11T09:35:24;-3.00;99.90
52211;DHT22;38179;52.756;6.906;2024-01-11T09:37:50;-1.60;99.90
52211;DHT22;38179;52.756;6.906;2024-01-11T09:40:17;-2.10;99.90
52211;DHT22;38179;52.756;6.906;2024-01-11T09:42:43;-2.30;99.90
52211;DHT22;38179;52.756;6.906;2024-01-11T09:45:13;-2.90;99.90
52211;DHT22;38179;52.756;6.906;2024-01-11T09:47:40;-2.90;99.90
52211;DHT22;38179;52.756;6.906;2024-01-11T09:50:09;-2.40;99.90
52211;DHT22;38179;52.756;6.906;2024-01-11T09:52:37;-2.80;99.90
52211;DHT22;38179;52.756;6.906;2024-01-11T09:55:05;-2.80;99.90
52211;DHT22;38179;52.756;6.906;2024-01-11T09:57:31;-2.70;99.90
52211;DHT22;38179;52.756;6.906;2024-01-11T10:00:04;-2.70;99.90
52211;DHT22;38179;52.756;6.906;2024-01-11T10:02:33;-2.60;99.90
52211;DHT22;38179;52.756;6.906;2024-01-11T10:04:59;-2.60;99.90
52211;DHT22;38179;52.756;6.906;2024-01-11T10:07:24;-2.30;99.90
52211;DHT22;38179;52.756;6.906;2024-01-11T10:09:51;-1.10;99.90
52211;DHT22;38179;52.756;6.906;2024-01-11T10:12:20;-2.50;99.90
52211;DHT22;38179;52.756;6.906;2024-01-11T10:14:48;-2.40;99.90
52211;DHT22;38179;52.756;6.906;2024-01-11T10:17:14;-2.40;99.90
52211;DHT22;38179;52.756;6.906;2024-01-11T10:19:40;-2.40;99.90
52211;DHT22;38179;52.756;6.906;2024-01-11T10:22:06;-2.30;99.90
52211;DHT22;38179;52.756;6.906;2024-01-11T10:24:32;-2.20;99.90
52211;DHT22;38179;52.756;6.906;2024-01-11T10:26:58;-2.20;99.90
52211;DHT22;38179;52.756;6.906;2024-01-11T10:29:33;-1.30;99.90
52211;DHT22;38179;52.756;6.906;2024-01-11T10:32:00;-2.20;99.90
52211;DHT22;38179;52.756;6.906;2024-01-11T10:34:26;-0.90;99.90
52211;DHT22;38179;52.756;6.906;2024-01-11T10:36:52;-2.10;99.90
52211;DHT22;38179;52.756;6.906;2024-01-11T10:39:17;-2.10;99.90
52211;DHT22;38179;52.756;6.906;2024-01-11T10:41:49;-2.00;99.90
52211;DHT22;38179;52.756;6.906;2024-01-11T10:44:20;-2.00;99.90
52211;DHT22;38179;52.756;6.906;2024-01-11T10:46:51;-1.90;99.90
52211;DHT22;38179;52.756;6.906;2024-01-11T10:49:23;-1.90;99.90
52211;DHT22;38179;52.756;6.906;2024-01-11T10:51:59;-1.80;99.90
52211;DHT22;38179;52.756;6.906;2024-01-11T10:54:28;-0.80;99.90
52211;DHT22;38179;52.756;6.906;2024-01-11T10:56:55;-1.70;99.90
52211;DHT22;38179;52.756;6.906;2024-01-11T10:59:22;-1.70;99.90
52211;DHT22;38179;52.756;6.906;2024-01-11T11:01:53;-1.70;99.90
52211;DHT22;38179;52.756;6.906;2024-01-11T11:04:22;0.10;99.90
52211;DHT22;38179;52.756;6.906;2024-01-11T11:06:51;-1.60;99.90
52211;DHT22;38179;52.756;6.906;2024-01-11T11:09:17;-1.50;99.90
52211;DHT22;38179;52.756;6.906;2024-01-11T11:11:45;-0.90;99.90
52211;DHT22;38179;52.756;6.906;2024-01-11T11:14:14;-0.60;99.90
52211;DHT22;38179;52.756;6.906;2024-01-11T11:16:40;0.00;99.90
52211;DHT22;38179;52.756;6.906;2024-01-11T11:19:06;-1.00;99.90
52211;DHT22;38179;52.756;6.906;2024-01-11T11:21:32;-1.30;99.90
52211;DHT22;38179;52.756;6.906;2024-01-11T11:23:58;-1.30;99.90
52211;DHT22;38179;52.756;6.906;2024-01-11T11:26:26;0.20;99.90
52211;DHT22;38179;52.756;6.906;2024-01-11T11:28:52;-1.30;99.90
52211;DHT22;38179;52.756;6.906;2024-01-11T11:31:37;-1.30;99.90
52211;DHT22;38179;52.756;6.906;2024-01-11T11:34:06;-0.80;99.90
52211;DHT22;38179;52.756;6.906;2024-01-11T11:36:33;-1.20;99.90
52211;DHT22;38179;52.756;6.906;2024-01-11T11:39:01;0.60;99.90
52211;DHT22;38179;52.756;6.906;2024-01-11T11:41:27;-1.10;99.90
52211;DHT22;38179;52.756;6.906;2024-01-11T11:43:53;-1.10;99.90
52211;DHT22;38179;52.756;6.906;2024-01-11T11:46:21;-1.00;99.90
52211;DHT22;38179;52.756;6.906;2024-01-11T11:48:49;-0.60;99.90
52211;DHT22;38179;52.756;6.906;2024-01-11T11:51:20;-1.00;99.90
52211;DHT22;38179;52.756;6.906;2024-01-11T11:53:48;-0.90;99.90
52211;DHT22;38179;52.756;6.906;2024-01-11T11:56:19;-0.10;99.90
52211;DHT22;38179;52.756;6.906;2024-01-11T11:58:46;-0.90;99.90
52211;DHT22;38179;52.756;6.906;2024-01-11T12:01:14;-0.80;99.90
52211;DHT22;38179;52.756;6.906;2024-01-11T12:03:44;1.00;99.90
52211;DHT22;38179;52.756;6.906;2024-01-11T12:06:22;-0.80;99.90
52211;DHT22;38179;52.756;6.906;2024-01-11T12:08:53;0.20;99.90
52211;DHT22;38179;52.756;6.906;2024-01-11T12:11:20;-0.60;99.90
52211;DHT22;38179;52.756;6.906;2024-01-11T12:13:50;-0.10;99.90
52211;DHT22;38179;52.756;6.906;2024-01-11T12:16:16;0.90;99.90
52211;DHT22;38179;52.756;6.906;2024-01-11T12:18:42;-0.70;99.90
52211;DHT22;38179;52.756;6.906;2024-01-11T12:21:08;-0.60;99.90
52211;DHT22;38179;52.756;6.906;2024-01-11T12:23:34;-0.50;99.90
52211;DHT22;38179;52.756;6.906;2024-01-11T12:26:05;0.40;99.90
52211;DHT22;38179;52.756;6.906;2024-01-11T12:28:33;-0.50;99.90
52211;DHT22;38179;52.756;6.906;2024-01-11T12:30:59;-0.50;99.90
52211;DHT22;38179;52.756;6.906;2024-01-11T12:33:26;-0.50;99.90
52211;DHT22;38179;52.756;6.906;2024-01-11T12:35:52;0.20;99.90
52211;DHT22;38179;52.756;6.906;2024-01-11T12:38:18;-0.50;99.90
52211;DHT22;38179;52.756;6.906;2024-01-11T12:40:46;-0.50;99.90
52211;DHT22;38179;52.756;6.906;2024-01-11T12:43:12;1.20;99.90
52211;DHT22;38179;52.756;6.906;2024-01-11T12:45:39;-0.50;99.90
52211;DHT22;38179;52.756;6.906;2024-01-11T12:48:08;-0.40;99.90
52211;DHT22;38179;52.756;6.906;2024-01-11T12:50:35;-0.20;99.90
52211;DHT22;38179;52.756;6.906;2024-01-11T12:53:11;-0.50;99.90
52211;DHT22;38179;52.756;6.906;2024-01-11T12:55:44;-0.50;99.90
52211;DHT22;38179;52.756;6.906;2024-01-11T12:58:10;-0.30;99.90
52211;DHT22;38179;52.756;6.906;2024-01-11T13:00:37;1.00;99.90
52211;DHT22;38179;52.756;6.906;2024-01-11T13:03:04;1.10;99.90
52211;DHT22;38179;52.756;6.906;2024-01-11T13:05:31;-0.40;99.90
52211;DHT22;38179;52.756;6.906;2024-01-11T13:08:10;-0.40;99.90
52211;DHT22;38179;52.756;6.906;2024-01-11T13:10:37;-0.40;99.90
52211;DHT22;38179;52.756;6.906;2024-01-11T13:13:04;-0.20;99.90
52211;DHT22;38179;52.756;6.906;2024-01-11T13:15:30;-0.40;99.90
52211;DHT22;38179;52.756;6.906;2024-01-11T13:17:57;-0.40;99.90
52211;DHT22;38179;52.756;6.906;2024-01-11T13:20:23;0.50;99.90
52211;DHT22;38179;52.756;6.906;2024-01-11T13:23:11;-0.40;99.90
52211;DHT22;38179;52.756;6.906;2024-01-11T13:25:38;-0.40;99.90
52211;DHT22;38179;52.756;6.906;2024-01-11T13:28:04;-0.30;99.90
52211;DHT22;38179;52.756;6.906;2024-01-11T13:30:29;-0.30;99.90
52211;DHT22;38179;52.756;6.906;2024-01-11T13:32:55;-0.30;99.90
52211;DHT22;38179;52.756;6.906;2024-01-11T13:35:21;-0.30;99.90
52211;DHT22;38179;52.756;6.906;2024-01-11T13:37:46;-0.30;99.90
52211;DHT22;38179;52.756;6.906;2024-01-11T13:40:12;0.00;99.90
52211;DHT22;38179;52.756;6.906;2024-01-11T13:42:39;-0.30;99.90
52211;DHT22;38179;52.756;6.906;2024-01-11T13:45:06;-0.30;99.90
52211;DHT22;38179;52.756;6.906;2024-01-11T13:47:35;-0.30;99.90
52211;DHT22;38179;52.756;6.906;2024-01-11T13:50:01;0.10;99.90
52211;DHT22;38179;52.756;6.906;2024-01-11T13:52:26;-0.30;99.90
52211;DHT22;38179;52.756;6.906;2024-01-11T13:54:52;0.40;99.90
52211;DHT22;38179;52.756;6.906;2024-01-11T13:57:18;-0.30;99.90
52211;DHT22;38179;52.756;6.906;2024-01-11T13:59:43;-0.30;99.90
52211;DHT22;38179;52.756;6.906;2024-01-11T14:02:09;-0.30;99.90
52211;DHT22;38179;52.756;6.906;2024-01-11T14:04:35;-0.30;99.90
52211;DHT22;38179;52.756;6.906;2024-01-11T14:07:01;0.60;99.90
52211;DHT22;38179;52.756;6.906;2024-01-11T14:09:29;-0.30;99.90
52211;DHT22;38179;52.756;6.906;2024-01-11T14:11:54;-0.30;99.90
52211;DHT22;38179;52.756;6.906;2024-01-11T14:14:23;-0.30;99.90
52211;DHT22;38179;52.756;6.906;2024-01-11T14:16:49;-0.30;99.90
52211;DHT22;38179;52.756;6.906;2024-01-11T14:19:17;0.40;99.90
52211;DHT22;38179;52.756;6.906;2024-01-11T14:21:42;0.30;99.90
52211;DHT22;38179;52.756;6.906;2024-01-11T14:24:08;-0.30;99.90
52211;DHT22;38179;52.756;6.906;2024-01-11T14:26:34;0.90;99.90
52211;DHT22;38179;52.756;6.906;2024-01-11T14:29:00;-0.30;99.90
52211;DHT22;38179;52.756;6.906;2024-01-11T14:31:27;-0.30;99.90
52211;DHT22;38179;52.756;6.906;2024-01-11T14:33:52;0.00;99.90
52211;DHT22;38179;52.756;6.906;2024-01-11T14:36:18;-0.30;99.90
52211;DHT22;38179;52.756;6.906;2024-01-11T14:38:44;1.30;99.90
52211;DHT22;38179;52.756;6.906;2024-01-11T14:41:10;-0.20;99.90
52211;DHT22;38179;52.756;6.906;2024-01-11T14:43:36;0.90;99.90
52211;DHT22;38179;52.756;6.906;2024-01-11T14:46:02;-0.30;99.90
52211;DHT22;38179;52.756;6.906;2024-01-11T14:48:29;-0.30;99.90
52211;DHT22;38179;52.756;6.906;2024-01-11T14:50:59;-0.30;99.90
52211;DHT22;38179;52.756;6.906;2024-01-11T14:53:24;-0.30;99.90
52211;DHT22;38179;52.756;6.906;2024-01-11T14:55:50;-0.30;99.90
52211;DHT22;38179;52.756;6.906;2024-01-11T14:58:16;-0.30;99.90
52211;DHT22;38179;52.756;6.906;2024-01-11T15:00:42;-0.10;99.90
52211;DHT22;38179;52.756;6.906;2024-01-11T15:03:08;0.10;99.90
52211;DHT22;38179;52.756;6.906;2024-01-11T15:05:33;-0.30;99.90
52211;DHT22;38179;52.756;6.906;2024-01-11T15:07:59;-0.30;99.90
52211;DHT22;38179;52.756;6.906;2024-01-11T15:10:25;0.00;99.90
52211;DHT22;38179;52.756;6.906;2024-01-11T15:12:51;0.40;99.90
52211;DHT22;38179;52.756;6.906;2024-01-11T15:15:25;-0.20;99.90
52211;DHT22;38179;52.756;6.906;2024-01-11T15:17:51;-0.30;99.90
52211;DHT22;38179;52.756;6.906;2024-01-11T15:20:18;-0.30;99.90
52211;DHT22;38179;52.756;6.906;2024-01-11T15:22:43;-0.30;99.90
52211;DHT22;38179;52.756;6.906;2024-01-11T15:25:09;-0.30;99.90
52211;DHT22;38179;52.756;6.906;2024-01-11T15:27:35;0.10;99.90